createdAt,value
2022-10-28T06:41:48.061Z,99420.38
2022-10-28T06:46:54.855Z,99493.75
2022-10-28T06:57:34.783Z,99500.47
2022-10-28T07:02:58.641Z,99509.19
2022-10-28T07:08:21.769Z,99488.00
2022-10-28T07:13:27.453Z,99504.84
2022-10-28T07:18:32.518Z,99487.91
2022-10-28T07:23:36.090Z,99463.31
2022-10-28T07:28:39.565Z,99452.81
2022-10-28T07:33:44.895Z,99501.00
2022-10-28T07:38:51.720Z,99482.66
2022-10-28T07:43:55.259Z,99499.00
2022-10-28T07:49:01.027Z,99467.94
2022-10-28T08:00:16.089Z,99476.59
2022-10-28T08:05:21.242Z,99434.03
2022-10-28T08:10:24.890Z,99491.56
2022-10-28T08:15:29.865Z,99503.63
2022-10-28T08:20:35.015Z,99476.59
2022-10-28T08:25:38.798Z,99468.38
2022-10-28T08:30:57.039Z,99503.91
2022-10-28T08:36:04.269Z,99481.03
2022-10-28T08:41:17.120Z,99514.91
2022-10-28T08:46:26.603Z,99501.81
2022-10-28T08:51:38.248Z,99487.56
2022-10-28T08:56:46.259Z,99399.50
2022-10-28T09:01:52.263Z,99449.00
2022-10-28T09:06:57.568Z,99516.50
2022-10-28T09:12:12.624Z,99532.88
2022-10-28T09:17:20.332Z,99489.94
2022-10-28T09:22:28.858Z,99486.13
2022-10-28T09:27:42.976Z,99519.38
2022-10-28T09:32:50.432Z,99469.81
2022-10-28T09:38:08.996Z,99496.38
2022-10-28T09:43:26.141Z,99515.88
2022-10-28T09:48:31.287Z,99485.03
2022-10-28T09:53:43.398Z,99464.28
2022-10-28T09:58:48.058Z,99500.47
2022-10-28T10:03:52.582Z,99486.59
2022-10-28T10:08:58.478Z,99486.06
2022-10-28T10:14:06.452Z,99474.25
2022-10-28T10:19:12.162Z,99507.69
2022-10-28T10:24:30.285Z,99530.34
2022-10-28T10:29:36.043Z,99512.22
2022-10-28T10:34:40.495Z,99511.16
2022-10-28T10:39:47.670Z,99367.69
2022-10-28T10:45:03.411Z,99490.53
2022-10-28T10:50:26.894Z,99329.03
2022-10-28T10:55:38.216Z,99302.59
2022-10-28T11:00:46.764Z,99501.25
2022-10-28T11:06:05.330Z,99447.88
2022-10-28T11:11:22.088Z,99492.41
2022-10-28T11:16:26.555Z,99486.03
2022-10-28T11:21:50.522Z,99485.66
2022-10-28T11:26:59.920Z,99492.09
2022-10-28T11:32:17.155Z,99441.03
2022-10-28T11:37:27.663Z,99427.63
2022-10-28T11:42:39.665Z,99486.09
2022-10-28T11:48:02.903Z,99470.13
2022-10-28T11:53:38.780Z,99329.28
2022-10-28T11:58:54.241Z,99462.69
2022-10-28T12:04:07.668Z,99393.22
2022-10-28T12:09:22.558Z,99355.66
2022-10-28T12:14:32.252Z,99377.69
2022-10-28T12:19:39.872Z,99430.63
2022-10-28T12:24:44.979Z,99433.06
2022-10-28T12:29:52.531Z,99435.38
2022-10-28T12:35:01.729Z,99415.34
2022-10-28T12:40:09.480Z,99398.03
2022-10-28T12:45:15.884Z,99437.72
2022-10-28T12:50:25.824Z,99436.56
2022-10-28T12:55:35.091Z,99412.44
2022-10-28T13:00:46.614Z,99427.09
2022-10-28T13:05:55.244Z,99429.19
2022-10-28T13:11:13.667Z,99237.13
2022-10-28T13:16:37.106Z,99384.22
2022-10-28T13:21:57.375Z,99386.84
2022-10-28T13:27:03.481Z,99409.50
2022-10-28T13:32:08.445Z,99401.50
2022-10-28T13:37:20.694Z,99401.59
2022-10-28T13:42:48.179Z,99396.75
2022-10-28T13:47:53.024Z,99241.78
2022-10-28T13:53:29.932Z,99392.25
2022-10-28T13:58:33.416Z,99397.16
2022-10-28T14:03:40.265Z,99351.25
2022-10-28T14:15:44.360Z,99380.44
2022-10-28T14:35:57.858Z,99364.00
2022-10-28T14:41:51.248Z,99363.63
2022-10-28T14:47:21.064Z,99351.00
2022-10-28T14:59:53.200Z,99370.97
2022-10-28T15:05:03.916Z,99360.63
2022-10-28T15:10:15.713Z,99351.09
2022-10-28T15:15:22.995Z,99347.22
2022-10-28T15:20:29.991Z,99349.66
2022-10-28T15:25:33.489Z,99339.56
2022-10-28T15:30:45.013Z,99345.34
2022-10-28T15:35:51.379Z,99245.88
2022-10-28T15:40:54.855Z,99354.66
2022-10-28T15:46:10.285Z,99353.03
2022-10-28T15:51:16.869Z,99336.91
2022-10-28T15:56:24.988Z,99335.88
2022-10-28T16:01:30.913Z,99343.59
2022-10-28T16:06:37.813Z,99343.94
2022-10-28T16:11:44.161Z,99342.53
2022-10-28T16:16:47.728Z,99240.63
2022-10-28T16:21:53.497Z,99333.84
2022-10-28T16:27:13.585Z,99311.69
2022-10-28T16:32:18.168Z,99339.31
2022-10-28T16:37:25.688Z,99342.72
2022-10-28T16:42:29.304Z,99320.50
2022-10-28T16:47:33.048Z,99309.81
2022-10-28T16:52:41.934Z,99301.19
2022-10-28T16:57:45.516Z,99237.97
2022-10-28T17:02:51.122Z,99394.34
2022-10-28T17:07:58.137Z,99345.72
2022-10-28T17:24:32.859Z,99140.84
2022-10-28T17:40:57.617Z,99132.56
2022-10-28T18:32:06.319Z,99222.44
2022-10-28T18:37:11.857Z,99280.69
2022-10-28T18:42:19.272Z,99327.97
2022-10-28T18:47:27.112Z,99289.66
2022-10-28T18:58:14.539Z,99221.47
2022-10-28T19:03:22.292Z,99151.94
2022-10-28T19:08:25.964Z,99306.53
2022-10-28T19:25:08.625Z,99224.66
2022-10-28T19:59:27.715Z,99236.59
2022-10-28T20:56:51.870Z,99221.13
